Cehov, Russia
Current Conditions -  °F | °C
As of 2:00 PM on Thursday 23 Oct 2014 (Local Time) from UUMO Reporting Station
Scattered Clouds Scattered Clouds  
Wind Chill:   Ceiling: Unl
Heat Index: 21°   Visibility: 6mi
Dew Point:   Wind: 13mph
Humidity: 54%   Direction: 340°NNW
Pressure: 30.3"   Gusts: NA
Location:  55.15°N, 37.48°E
Report Text: UUMO 231100Z 34006MPS 9999 SCT030 M06/M14 Q1026 NOSIG RMKQFE754/1006 26090060
Loading
Personal Weather Stations






























Interactive Weather Map
Tropical Storm Tracking
New forecast layout! Learn more

10-Day Weather Forecast

Advertisements
Track Severe Weather on mobile